sensor_id;sensor_type;location;lat;lon;timestamp;pressure;altitude;pressure_sealevel;temperature;humidity
70781;BME280;59514;48.810;2.134;2023-04-08T00:00:11;100882.38;;;7.65;78.39
70781;BME280;59514;48.810;2.134;2023-04-08T00:02:37;100882.38;;;7.65;76.66
70781;BME280;59514;48.810;2.134;2023-04-08T00:05:03;100881.53;;;7.65;76.67
70781;BME280;59514;48.810;2.134;2023-04-08T00:07:28;100883.78;;;7.61;78.52
70781;BME280;59514;48.810;2.134;2023-04-08T00:09:53;100890.69;;;7.56;77.54
70781;BME280;59514;48.810;2.134;2023-04-08T00:12:19;100890.06;;;7.54;77.45
70781;BME280;59514;48.810;2.134;2023-04-08T00:14:45;100885.94;;;7.51;77.08
70781;BME280;59514;48.810;2.134;2023-04-08T00:17:10;100890.25;;;7.52;77.59
70781;BME280;59514;48.810;2.134;2023-04-08T00:19:35;100884.06;;;7.52;79.63
70781;BME280;59514;48.810;2.134;2023-04-08T00:22:01;100891.66;;;7.48;77.55
70781;BME280;59514;48.810;2.134;2023-04-08T00:24:26;100891.22;;;7.45;77.47
70781;BME280;59514;48.810;2.134;2023-04-08T00:26:51;100889.38;;;7.45;78.30
70781;BME280;59514;48.810;2.134;2023-04-08T00:29:17;100888.75;;;7.43;77.65
70781;BME280;59514;48.810;2.134;2023-04-08T00:31:42;100886.84;;;7.37;77.91
70781;BME280;59514;48.810;2.134;2023-04-08T00:34:07;100888.69;;;7.37;78.70
70781;BME280;59514;48.810;2.134;2023-04-08T00:36:33;100884.94;;;7.31;78.94
70781;BME280;59514;48.810;2.134;2023-04-08T00:39:00;100885.31;;;7.28;78.40
70781;BME280;59514;48.810;2.134;2023-04-08T00:41:26;100889.19;;;7.26;80.47
70781;BME280;59514;48.810;2.134;2023-04-08T00:43:51;100890.00;;;7.26;79.78
70781;BME280;59514;48.810;2.134;2023-04-08T00:46:17;100895.53;;;7.25;79.24
70781;BME280;59514;48.810;2.134;2023-04-08T00:48:42;100888.56;;;7.24;78.37
70781;BME280;59514;48.810;2.134;2023-04-08T00:51:08;100885.44;;;7.20;80.19
70781;BME280;59514;48.810;2.134;2023-04-08T00:53:33;100895.03;;;7.15;79.17
70781;BME280;59514;48.810;2.134;2023-04-08T00:55:58;100884.53;;;7.13;80.40
70781;BME280;59514;48.810;2.134;2023-04-08T00:58:25;100885.53;;;7.12;79.11
70781;BME280;59514;48.810;2.134;2023-04-08T01:00:59;100886.94;;;7.08;83.97
70781;BME280;59514;48.810;2.134;2023-04-08T01:06:15;100892.03;;;7.03;82.56
70781;BME280;59514;48.810;2.134;2023-04-08T01:08:44;100894.06;;;7.01;80.71
70781;BME280;59514;48.810;2.134;2023-04-08T01:11:11;100890.75;;;6.99;80.71
70781;BME280;59514;48.810;2.134;2023-04-08T01:13:40;100889.09;;;6.98;82.98
70781;BME280;59514;48.810;2.134;2023-04-08T01:16:12;100887.66;;;6.95;84.16
70781;BME280;59514;48.810;2.134;2023-04-08T01:18:40;100888.84;;;6.93;82.27
70781;BME280;59514;48.810;2.134;2023-04-08T01:21:07;100889.84;;;6.92;80.70
70781;BME280;59514;48.810;2.134;2023-04-08T01:23:57;100896.41;;;6.89;83.49
70781;BME280;59514;48.810;2.134;2023-04-08T01:26:25;100893.91;;;6.88;81.08
70781;BME280;59514;48.810;2.134;2023-04-08T01:28:52;100893.47;;;6.84;81.98
70781;BME280;59514;48.810;2.134;2023-04-08T01:31:19;100890.16;;;6.82;80.75
70781;BME280;59514;48.810;2.134;2023-04-08T01:33:46;100894.03;;;6.80;81.71
70781;BME280;59514;48.810;2.134;2023-04-08T01:36:13;100893.00;;;6.81;81.30
70781;BME280;59514;48.810;2.134;2023-04-08T01:38:40;100890.97;;;6.83;81.59
70781;BME280;59514;48.810;2.134;2023-04-08T01:41:08;100892.56;;;6.77;82.85
70781;BME280;59514;48.810;2.134;2023-04-08T01:43:34;100897.06;;;6.77;81.83
70781;BME280;59514;48.810;2.134;2023-04-08T01:46:00;100892.75;;;6.76;81.33
70781;BME280;59514;48.810;2.134;2023-04-08T01:48:27;100893.13;;;6.73;82.07
70781;BME280;59514;48.810;2.134;2023-04-08T01:50:53;100896.19;;;6.70;81.27
70781;BME280;59514;48.810;2.134;2023-04-08T01:53:20;100892.41;;;6.64;81.60
70781;BME280;59514;48.810;2.134;2023-04-08T01:55:48;100896.44;;;6.60;85.14
70781;BME280;59514;48.810;2.134;2023-04-08T01:58:19;100900.03;;;6.53;83.87
70781;BME280;59514;48.810;2.134;2023-04-08T02:00:45;100899.16;;;6.46;82.16
70781;BME280;59514;48.810;2.134;2023-04-08T02:03:11;100901.97;;;6.44;85.31
70781;BME280;59514;48.810;2.134;2023-04-08T02:05:38;100895.47;;;6.47;84.53
70781;BME280;59514;48.810;2.134;2023-04-08T02:08:04;100898.75;;;6.49;82.70
70781;BME280;59514;48.810;2.134;2023-04-08T02:10:29;100894.47;;;6.48;83.74
70781;BME280;59514;48.810;2.134;2023-04-08T02:12:55;100888.09;;;6.49;87.00
70781;BME280;59514;48.810;2.134;2023-04-08T02:15:21;100888.09;;;6.49;83.70
70781;BME280;59514;48.810;2.134;2023-04-08T02:17:50;100892.16;;;6.45;83.71
70781;BME280;59514;48.810;2.134;2023-04-08T02:20:21;100896.59;;;6.38;85.62
70781;BME280;59514;48.810;2.134;2023-04-08T02:22:57;100889.31;;;6.32;84.35
70781;BME280;59514;48.810;2.134;2023-04-08T02:25:24;100889.66;;;6.29;84.09
70781;BME280;59514;48.810;2.134;2023-04-08T02:27:51;100891.69;;;6.27;83.29
70781;BME280;59514;48.810;2.134;2023-04-08T02:30:18;100887.84;;;6.29;83.40
70781;BME280;59514;48.810;2.134;2023-04-08T02:32:45;100886.38;;;6.27;84.29
70781;BME280;59514;48.810;2.134;2023-04-08T02:35:12;100895.75;;;6.23;84.09
70781;BME280;59514;48.810;2.134;2023-04-08T02:37:38;100895.09;;;6.21;83.75
70781;BME280;59514;48.810;2.134;2023-04-08T02:40:09;100893.44;;;6.20;84.82
70781;BME280;59514;48.810;2.134;2023-04-08T02:42:45;100893.44;;;6.20;92.87
70781;BME280;59514;48.810;2.134;2023-04-08T02:45:11;100889.75;;;6.21;84.20
70781;BME280;59514;48.810;2.134;2023-04-08T02:47:36;100893.81;;;6.17;86.06
70781;BME280;59514;48.810;2.134;2023-04-08T02:50:01;100894.19;;;6.14;85.28
70781;BME280;59514;48.810;2.134;2023-04-08T02:52:27;100890.50;;;6.15;85.37
70781;BME280;59514;48.810;2.134;2023-04-08T02:54:52;100885.53;;;6.12;84.29
70781;BME280;59514;48.810;2.134;2023-04-08T02:57:17;100894.84;;;6.16;88.63
70781;BME280;59514;48.810;2.134;2023-04-08T02:59:42;100886.38;;;6.12;83.15
70781;BME280;59514;48.810;2.134;2023-04-08T03:02:08;100883.22;;;6.08;85.49
70781;BME280;59514;48.810;2.134;2023-04-08T03:04:33;100891.81;;;6.04;84.92
70781;BME280;59514;48.810;2.134;2023-04-08T03:06:58;100889.94;;;6.04;84.33
70781;BME280;59514;48.810;2.134;2023-04-08T03:09:24;100894.00;;;6.00;84.88
70781;BME280;59514;48.810;2.134;2023-04-08T03:11:49;100893.53;;;5.97;84.71
70781;BME280;59514;48.810;2.134;2023-04-08T03:14:17;100894.97;;;5.85;85.64
70781;BME280;59514;48.810;2.134;2023-04-08T03:16:42;100894.38;;;5.75;85.00
70781;BME280;59514;48.810;2.134;2023-04-08T03:19:07;100891.25;;;5.71;87.17
70781;BME280;59514;48.810;2.134;2023-04-08T03:21:33;100898.31;;;5.64;87.84
70781;BME280;59514;48.810;2.134;2023-04-08T03:23:58;100904.00;;;5.61;87.84
70781;BME280;59514;48.810;2.134;2023-04-08T03:26:23;100896.38;;;5.58;89.68
70781;BME280;59514;48.810;2.134;2023-04-08T03:28:51;100896.06;;;5.53;87.85
70781;BME280;59514;48.810;2.134;2023-04-08T03:31:17;100898.09;;;5.51;88.62
70781;BME280;59514;48.810;2.134;2023-04-08T03:33:45;100896.63;;;5.49;88.17
70781;BME280;59514;48.810;2.134;2023-04-08T03:36:10;100896.13;;;5.45;89.20
70781;BME280;59514;48.810;2.134;2023-04-08T03:38:36;100895.84;;;5.40;96.05
70781;BME280;59514;48.810;2.134;2023-04-08T03:41:01;100895.53;;;5.35;94.55
70781;BME280;59514;48.810;2.134;2023-04-08T03:43:27;100902.22;;;5.31;88.53
70781;BME280;59514;48.810;2.134;2023-04-08T03:45:52;100897.09;;;5.30;88.20
70781;BME280;59514;48.810;2.134;2023-04-08T03:48:17;100901.25;;;5.32;93.26
70781;BME280;59514;48.810;2.134;2023-04-08T03:50:42;100897.63;;;5.25;88.10
70781;BME280;59514;48.810;2.134;2023-04-08T03:53:08;100904.09;;;5.31;88.61
70781;BME280;59514;48.810;2.134;2023-04-08T03:55:35;100901.25;;;5.32;88.41
70781;BME280;59514;48.810;2.134;2023-04-08T03:58:01;100895.91;;;5.32;89.71
70781;BME280;59514;48.810;2.134;2023-04-08T04:00:26;100900.41;;;5.32;88.83
70781;BME280;59514;48.810;2.134;2023-04-08T04:02:51;100908.63;;;5.22;90.21
70781;BME280;59514;48.810;2.134;2023-04-08T04:05:17;100906.03;;;5.14;89.24
70781;BME280;59514;48.810;2.134;2023-04-08T04:07:42;100910.03;;;5.10;94.95
70781;BME280;59514;48.810;2.134;2023-04-08T04:10:08;100913.78;;;5.01;96.55
70781;BME280;59514;48.810;2.134;2023-04-08T04:12:34;100914.47;;;4.95;98.34
70781;BME280;59514;48.810;2.134;2023-04-08T04:14:59;100908.84;;;4.90;97.76
70781;BME280;59514;48.810;2.134;2023-04-08T04:17:25;100912.00;;;4.85;90.34
70781;BME280;59514;48.810;2.134;2023-04-08T04:19:51;100909.06;;;4.80;90.69
70781;BME280;59514;48.810;2.134;2023-04-08T04:22:17;100904.91;;;4.78;90.40
70781;BME280;59514;48.810;2.134;2023-04-08T04:24:46;100906.91;;;4.76;97.83
70781;BME280;59514;48.810;2.134;2023-04-08T04:27:11;100910.91;;;4.72;91.33
70781;BME280;59514;48.810;2.134;2023-04-08T04:29:36;100907.28;;;4.73;91.29
70781;BME280;59514;48.810;2.134;2023-04-08T04:32:02;100917.25;;;4.71;94.39
70781;BME280;59514;48.810;2.134;2023-04-08T04:34:27;100917.06;;;4.72;93.54
70781;BME280;59514;48.810;2.134;2023-04-08T04:36:52;100917.91;;;4.73;96.12
70781;BME280;59514;48.810;2.134;2023-04-08T04:39:18;100919.91;;;4.71;95.29
70781;BME280;59514;48.810;2.134;2023-04-08T04:41:43;100915.75;;;4.68;94.61
70781;BME280;59514;48.810;2.134;2023-04-08T04:44:08;100924.59;;;4.69;94.94
70781;BME280;59514;48.810;2.134;2023-04-08T04:46:34;100935.22;;;4.69;95.34
70781;BME280;59514;48.810;2.134;2023-04-08T04:48:59;100937.03;;;4.68;95.61
70781;BME280;59514;48.810;2.134;2023-04-08T04:51:25;100936.56;;;4.65;96.66
70781;BME280;59514;48.810;2.134;2023-04-08T04:53:51;100940.22;;;4.64;95.71
70781;BME280;59514;48.810;2.134;2023-04-08T04:56:16;100930.22;;;4.66;98.66
70781;BME280;59514;48.810;2.134;2023-04-08T04:58:41;100943.53;;;4.66;97.46
70781;BME280;59514;48.810;2.134;2023-04-08T05:01:07;100945.19;;;4.67;96.81
70781;BME280;59514;48.810;2.134;2023-04-08T05:03:32;100951.50;;;4.66;97.70
70781;BME280;59514;48.810;2.134;2023-04-08T05:05:58;100952.53;;;4.65;95.65
70781;BME280;59514;48.810;2.134;2023-04-08T05:08:23;100950.69;;;4.65;94.59
70781;BME280;59514;48.810;2.134;2023-04-08T05:10:49;100951.69;;;4.64;94.99
70781;BME280;59514;48.810;2.134;2023-04-08T05:13:15;100960.00;;;4.69;94.95
70781;BME280;59514;48.810;2.134;2023-04-08T05:15:40;100958.13;;;4.70;92.77
70781;BME280;59514;48.810;2.134;2023-04-08T05:18:05;100961.47;;;4.64;100.00
70781;BME280;59514;48.810;2.134;2023-04-08T05:20:31;100958.53;;;4.59;94.47
70781;BME280;59514;48.810;2.134;2023-04-08T05:22:56;100965.38;;;4.53;100.00
70781;BME280;59514;48.810;2.134;2023-04-08T05:25:21;100978.31;;;4.48;93.85
70781;BME280;59514;48.810;2.134;2023-04-08T05:27:47;100971.53;;;4.37;94.98
70781;BME280;59514;48.810;2.134;2023-04-08T05:30:12;100975.22;;;4.36;94.01
70781;BME280;59514;48.810;2.134;2023-04-08T05:32:38;100979.19;;;4.32;92.66
70781;BME280;59514;48.810;2.134;2023-04-08T05:35:04;100977.38;;;4.33;93.56
70781;BME280;59514;48.810;2.134;2023-04-08T05:37:29;100979.19;;;4.32;92.94
70781;BME280;59514;48.810;2.134;2023-04-08T05:39:55;100980.53;;;4.36;95.55
70781;BME280;59514;48.810;2.134;2023-04-08T05:42:20;100984.16;;;4.35;96.42
70781;BME280;59514;48.810;2.134;2023-04-08T05:44:46;100982.16;;;4.37;94.83
70781;BME280;59514;48.810;2.134;2023-04-08T05:47:11;100984.31;;;4.42;98.03
70781;BME280;59514;48.810;2.134;2023-04-08T05:49:37;100986.47;;;4.47;96.29
70781;BME280;59514;48.810;2.134;2023-04-08T05:52:02;100993.94;;;4.51;97.58
70781;BME280;59514;48.810;2.134;2023-04-08T05:54:28;100989.78;;;4.57;99.85
70781;BME280;59514;48.810;2.134;2023-04-08T05:56:53;100989.41;;;4.60;97.56
70781;BME280;59514;48.810;2.134;2023-04-08T05:59:18;100998.59;;;4.57;93.85
70781;BME280;59514;48.810;2.134;2023-04-08T06:01:44;101001.41;;;4.56;94.29
70781;BME280;59514;48.810;2.134;2023-04-08T06:04:09;100993.94;;;4.59;99.40
70781;BME280;59514;48.810;2.134;2023-04-08T06:06:37;101004.38;;;4.61;93.64
70781;BME280;59514;48.810;2.134;2023-04-08T06:09:03;101007.38;;;4.58;99.76
70781;BME280;59514;48.810;2.134;2023-04-08T06:11:28;101013.72;;;4.57;98.76
70781;BME280;59514;48.810;2.134;2023-04-08T06:13:54;101005.38;;;4.60;96.57
70781;BME280;59514;48.810;2.134;2023-04-08T06:16:19;101010.84;;;4.66;94.39
70781;BME280;59514;48.810;2.134;2023-04-08T06:18:44;101006.19;;;4.68;95.29
70781;BME280;59514;48.810;2.134;2023-04-08T06:21:10;101006.34;;;4.75;94.07
70781;BME280;59514;48.810;2.134;2023-04-08T06:23:35;101008.47;;;4.79;95.54
70781;BME280;59514;48.810;2.134;2023-04-08T06:26:01;101010.28;;;4.87;99.57
70781;BME280;59514;48.810;2.134;2023-04-08T06:28:28;101008.28;;;4.89;98.90
70781;BME280;59514;48.810;2.134;2023-04-08T06:30:55;101003.25;;;4.94;93.92
70781;BME280;59514;48.810;2.134;2023-04-08T06:33:20;101021.00;;;5.01;93.15
70781;BME280;59514;48.810;2.134;2023-04-08T06:35:45;101013.53;;;5.05;94.41
70781;BME280;59514;48.810;2.134;2023-04-08T06:38:11;101030.47;;;5.12;96.41
70781;BME280;59514;48.810;2.134;2023-04-08T06:40:38;101035.22;;;5.24;97.77
70781;BME280;59514;48.810;2.134;2023-04-08T06:43:03;101028.50;;;5.59;96.38
70781;BME280;59514;48.810;2.134;2023-04-08T06:45:28;101032.09;;;5.97;92.39
70781;BME280;59514;48.810;2.134;2023-04-08T06:47:54;101035.66;;;5.89;93.18
70781;BME280;59514;48.810;2.134;2023-04-08T06:50:20;101041.38;;;5.86;92.76
70781;BME280;59514;48.810;2.134;2023-04-08T06:52:46;101048.72;;;5.84;93.78
70781;BME280;59514;48.810;2.134;2023-04-08T06:55:11;101053.00;;;5.85;91.87
70781;BME280;59514;48.810;2.134;2023-04-08T06:57:36;101045.97;;;5.92;91.55
70781;BME280;59514;48.810;2.134;2023-04-08T07:00:02;101057.56;;;5.99;90.70
70781;BME280;59514;48.810;2.134;2023-04-08T07:02:27;101051.16;;;6.08;90.78
70781;BME280;59514;48.810;2.134;2023-04-08T07:04:52;101051.16;;;6.08;91.20
70781;BME280;59514;48.810;2.134;2023-04-08T07:07:18;101053.75;;;6.17;90.96
70781;BME280;59514;48.810;2.134;2023-04-08T07:09:43;101051.41;;;6.22;92.58
70781;BME280;59514;48.810;2.134;2023-04-08T07:12:10;101055.63;;;6.31;91.96
70781;BME280;59514;48.810;2.134;2023-04-08T07:14:36;101055.56;;;6.39;89.18
70781;BME280;59514;48.810;2.134;2023-04-08T07:17:01;101068.28;;;6.51;90.87
70781;BME280;59514;48.810;2.134;2023-04-08T07:19:26;101067.09;;;6.54;86.69
70781;BME280;59514;48.810;2.134;2023-04-08T07:21:52;101065.00;;;6.64;87.18
70781;BME280;59514;48.810;2.134;2023-04-08T07:24:17;101062.72;;;6.75;87.73
70781;BME280;59514;48.810;2.134;2023-04-08T07:26:43;101063.47;;;6.84;85.48
70781;BME280;59514;48.810;2.134;2023-04-08T07:29:08;101061.97;;;6.96;86.31
70781;BME280;59514;48.810;2.134;2023-04-08T07:31:34;101074.97;;;7.14;84.43
70781;BME280;59514;48.810;2.134;2023-04-08T07:34:00;101065.38;;;7.19;83.36
70781;BME280;59514;48.810;2.134;2023-04-08T07:36:25;101063.16;;;7.23;84.39
70781;BME280;59514;48.810;2.134;2023-04-08T07:38:50;101065.72;;;7.31;84.21
70781;BME280;59514;48.810;2.134;2023-04-08T07:41:16;101070.94;;;7.39;83.95
70781;BME280;59514;48.810;2.134;2023-04-08T07:43:41;101068.38;;;7.45;83.37
70781;BME280;59514;48.810;2.134;2023-04-08T07:46:06;101064.75;;;7.53;82.70
70781;BME280;59514;48.810;2.134;2023-04-08T07:48:33;101063.13;;;7.73;82.33
70781;BME280;59514;48.810;2.134;2023-04-08T07:51:03;101063.81;;;7.81;80.88
70781;BME280;59514;48.810;2.134;2023-04-08T07:53:29;101072.13;;;7.87;80.95
70781;BME280;59514;48.810;2.134;2023-04-08T07:55:54;101071.72;;;7.90;80.94
70781;BME280;59514;48.810;2.134;2023-04-08T07:58:19;101084.59;;;8.01;79.99
70781;BME280;59514;48.810;2.134;2023-04-08T08:00:45;101077.22;;;8.03;79.86
70781;BME280;59514;48.810;2.134;2023-04-08T08:03:10;101080.75;;;8.10;79.39
70781;BME280;59514;48.810;2.134;2023-04-08T08:05:36;101071.78;;;8.17;78.81
70781;BME280;59514;48.810;2.134;2023-04-08T08:08:02;101082.53;;;8.24;78.60
70781;BME280;59514;48.810;2.134;2023-04-08T08:10:27;101069.91;;;8.32;78.22
70781;BME280;59514;48.810;2.134;2023-04-08T08:12:52;101072.63;;;8.39;77.95
70781;BME280;59514;48.810;2.134;2023-04-08T08:15:18;101071.88;;;8.45;77.18
70781;BME280;59514;48.810;2.134;2023-04-08T08:17:43;101070.69;;;8.54;77.15
70781;BME280;59514;48.810;2.134;2023-04-08T08:20:08;101076.53;;;8.64;76.26
70781;BME280;59514;48.810;2.134;2023-04-08T08:22:34;101079.91;;;8.73;75.68
70781;BME280;59514;48.810;2.134;2023-04-08T08:25:00;101084.47;;;8.79;75.78
70781;BME280;59514;48.810;2.134;2023-04-08T08:27:25;101085.75;;;8.89;75.46
70781;BME280;59514;48.810;2.134;2023-04-08T08:29:51;101086.22;;;8.93;74.23
70781;BME280;59514;48.810;2.134;2023-04-08T08:32:17;101094.03;;;8.94;73.79
70781;BME280;59514;48.810;2.134;2023-04-08T08:34:42;101091.50;;;8.86;73.65
70781;BME280;59514;48.810;2.134;2023-04-08T08:37:07;101091.88;;;8.83;74.56
70781;BME280;59514;48.810;2.134;2023-04-08T08:39:32;101097.31;;;8.90;74.52
70781;BME280;59514;48.810;2.134;2023-04-08T08:41:58;101098.13;;;8.90;73.82
70781;BME280;59514;48.810;2.134;2023-04-08T08:44:23;101103.13;;;9.00;73.86
70781;BME280;59514;48.810;2.134;2023-04-08T08:46:49;101103.41;;;9.11;74.44
70781;BME280;59514;48.810;2.134;2023-04-08T08:49:14;101104.03;;;9.13;73.63
70781;BME280;59514;48.810;2.134;2023-04-08T08:51:40;101103.03;;;9.14;73.78
70781;BME280;59514;48.810;2.134;2023-04-08T08:54:06;101097.97;;;9.32;72.71
70781;BME280;59514;48.810;2.134;2023-04-08T08:56:32;101097.34;;;9.30;73.15
70781;BME280;59514;48.810;2.134;2023-04-08T08:58:58;101097.09;;;9.25;72.36
70781;BME280;59514;48.810;2.134;2023-04-08T09:04:16;101097.19;;;9.38;71.47
70781;BME280;59514;48.810;2.134;2023-04-08T09:06:44;101099.66;;;9.46;72.49
70781;BME280;59514;48.810;2.134;2023-04-08T09:09:10;101101.16;;;9.55;72.35
70781;BME280;59514;48.810;2.134;2023-04-08T09:11:38;101099.94;;;9.65;71.32
70781;BME280;59514;48.810;2.134;2023-04-08T09:14:04;101104.56;;;9.84;71.51
70781;BME280;59514;48.810;2.134;2023-04-08T09:16:31;101098.19;;;9.98;71.08
70781;BME280;59514;48.810;2.134;2023-04-08T09:19:07;101101.06;;;9.96;69.41
70781;BME280;59514;48.810;2.134;2023-04-08T09:21:34;101111.16;;;9.94;70.11
70781;BME280;59514;48.810;2.134;2023-04-08T09:23:59;101101.88;;;9.90;71.32
70781;BME280;59514;48.810;2.134;2023-04-08T09:26:25;101101.72;;;10.05;69.32
70781;BME280;59514;48.810;2.134;2023-04-08T09:29:05;101102.75;;;10.04;68.53
70781;BME280;59514;48.810;2.134;2023-04-08T09:31:33;101105.19;;;9.99;70.01
70781;BME280;59514;48.810;2.134;2023-04-08T09:34:12;101110.66;;;10.12;69.03
70781;BME280;59514;48.810;2.134;2023-04-08T09:36:38;101112.72;;;10.23;68.91
70781;BME280;59514;48.810;2.134;2023-04-08T09:39:04;101116.84;;;10.25;67.37
70781;BME280;59514;48.810;2.134;2023-04-08T09:41:33;101109.41;;;10.21;68.13
70781;BME280;59514;48.810;2.134;2023-04-08T09:44:01;101116.03;;;10.31;68.45
70781;BME280;59514;48.810;2.134;2023-04-08T09:57:09;101116.22;;;10.82;67.09
70781;BME280;59514;48.810;2.134;2023-04-08T09:59:35;101111.47;;;10.91;67.54
70781;BME280;59514;48.810;2.134;2023-04-08T10:02:06;101113.50;;;11.02;64.85
70781;BME280;59514;48.810;2.134;2023-04-08T10:04:37;101112.28;;;11.04;66.37
70781;BME280;59514;48.810;2.134;2023-04-08T10:07:06;101108.75;;;11.17;66.73
70781;BME280;59514;48.810;2.134;2023-04-08T10:09:33;101112.06;;;11.12;64.36
70781;BME280;59514;48.810;2.134;2023-04-08T10:12:00;101109.75;;;11.22;64.53
70781;BME280;59514;48.810;2.134;2023-04-08T10:14:25;101121.31;;;11.29;64.65
70781;BME280;59514;48.810;2.134;2023-04-08T10:17:25;101113.38;;;11.54;62.27
70781;BME280;59514;48.810;2.134;2023-04-08T10:19:59;101103.88;;;11.96;63.12
70781;BME280;59514;48.810;2.134;2023-04-08T10:27:40;101102.97;;;12.89;59.50
70781;BME280;59514;48.810;2.134;2023-04-08T10:32:51;101100.94;;;13.27;57.53
70781;BME280;59514;48.810;2.134;2023-04-08T10:35:16;101095.00;;;13.19;58.38
70781;BME280;59514;48.810;2.134;2023-04-08T10:37:42;101094.38;;;13.71;56.71
70781;BME280;59514;48.810;2.134;2023-04-08T10:40:18;101099.34;;;14.04;55.13
70781;BME280;59514;48.810;2.134;2023-04-08T10:42:43;101091.88;;;14.17;53.79
70781;BME280;59514;48.810;2.134;2023-04-08T10:45:09;101080.44;;;14.04;55.56
70781;BME280;59514;48.810;2.134;2023-04-08T10:47:34;101084.22;;;14.55;57.41
70781;BME280;59514;48.810;2.134;2023-04-08T10:50:00;101082.00;;;14.87;57.93
70781;BME280;59514;48.810;2.134;2023-04-08T10:52:26;101072.22;;;15.09;51.32
70781;BME280;59514;48.810;2.134;2023-04-08T10:54:52;101071.28;;;15.04;54.43
70781;BME280;59514;48.810;2.134;2023-04-08T10:57:24;101067.59;;;15.33;50.74
70781;BME280;59514;48.810;2.134;2023-04-08T10:59:50;101070.44;;;15.78;53.38
70781;BME280;59514;48.810;2.134;2023-04-08T11:02:15;101070.44;;;15.78;53.38
70781;BME280;59514;48.810;2.134;2023-04-08T11:04:41;101065.44;;;15.86;55.04
70781;BME280;59514;48.810;2.134;2023-04-08T11:07:06;101060.13;;;15.63;50.11
70781;BME280;59514;48.810;2.134;2023-04-08T11:09:33;101058.69;;;15.72;52.86
70781;BME280;59514;48.810;2.134;2023-04-08T11:11:59;101056.41;;;16.25;51.31
70781;BME280;59514;48.810;2.134;2023-04-08T11:14:26;101051.69;;;16.04;54.33
70781;BME280;59514;48.810;2.134;2023-04-08T11:16:51;101056.09;;;15.94;48.85
70781;BME280;59514;48.810;2.134;2023-04-08T11:19:17;101046.09;;;16.11;53.42
70781;BME280;59514;48.810;2.134;2023-04-08T11:21:42;101046.97;;;16.78;52.54
70781;BME280;59514;48.810;2.134;2023-04-08T11:24:09;101047.06;;;17.26;46.25
70781;BME280;59514;48.810;2.134;2023-04-08T11:26:36;101051.34;;;17.00;47.09
70781;BME280;59514;48.810;2.134;2023-04-08T11:29:02;101050.44;;;17.33;53.03
70781;BME280;59514;48.810;2.134;2023-04-08T11:31:28;101046.91;;;17.33;49.71
70781;BME280;59514;48.810;2.134;2023-04-08T11:33:53;101033.19;;;17.66;49.71
70781;BME280;59514;48.810;2.134;2023-04-08T11:36:20;101045.56;;;17.13;45.67
70781;BME280;59514;48.810;2.134;2023-04-08T11:38:46;101046.16;;;17.37;52.29
70781;BME280;59514;48.810;2.134;2023-04-08T11:41:12;101044.38;;;17.69;44.44
70781;BME280;59514;48.810;2.134;2023-04-08T11:43:38;101046.44;;;17.41;43.76
70781;BME280;59514;48.810;2.134;2023-04-08T11:46:11;101044.28;;;17.59;42.54
70781;BME280;59514;48.810;2.134;2023-04-08T11:48:37;101039.00;;;17.09;45.97
70781;BME280;59514;48.810;2.134;2023-04-08T11:51:05;101041.19;;;18.04;46.64
70781;BME280;59514;48.810;2.134;2023-04-08T11:53:33;101039.44;;;17.66;43.50
70781;BME280;59514;48.810;2.134;2023-04-08T11:56:17;101040.31;;;18.25;42.16
70781;BME280;59514;48.810;2.134;2023-04-08T11:58:42;101043.00;;;18.52;46.16
70781;BME280;59514;48.810;2.134;2023-04-08T12:01:07;101031.53;;;18.86;45.72
70781;BME280;59514;48.810;2.134;2023-04-08T12:03:33;101032.53;;;18.39;42.95
70781;BME280;59514;48.810;2.134;2023-04-08T12:05:58;101030.19;;;18.89;45.62
70781;BME280;59514;48.810;2.134;2023-04-08T12:08:23;101025.75;;;18.73;45.90
70781;BME280;59514;48.810;2.134;2023-04-08T12:10:49;101024.31;;;18.34;42.36
70781;BME280;59514;48.810;2.134;2023-04-08T12:13:14;101019.34;;;18.94;42.13
70781;BME280;59514;48.810;2.134;2023-04-08T12:15:40;101023.28;;;19.23;47.99
70781;BME280;59514;48.810;2.134;2023-04-08T12:18:06;101025.38;;;19.06;41.69
70781;BME280;59514;48.810;2.134;2023-04-08T12:20:31;101022.44;;;18.66;41.46
70781;BME280;59514;48.810;2.134;2023-04-08T12:22:56;101017.13;;;18.86;43.81
70781;BME280;59514;48.810;2.134;2023-04-08T12:25:22;101017.47;;;19.76;45.88
70781;BME280;59514;48.810;2.134;2023-04-08T12:27:47;101021.94;;;19.26;45.36
70781;BME280;59514;48.810;2.134;2023-04-08T12:30:12;101021.06;;;19.92;38.49
70781;BME280;59514;48.810;2.134;2023-04-08T12:32:38;101009.88;;;19.89;37.00
70781;BME280;59514;48.810;2.134;2023-04-08T12:35:03;101016.31;;;19.42;39.71
70781;BME280;59514;48.810;2.134;2023-04-08T12:37:29;101019.00;;;19.37;38.61
70781;BME280;59514;48.810;2.134;2023-04-08T12:39:54;101012.63;;;19.94;38.28
70781;BME280;59514;48.810;2.134;2023-04-08T12:42:19;101014.00;;;20.62;41.54
70781;BME280;59514;48.810;2.134;2023-04-08T12:44:45;101016.44;;;20.73;40.20
70781;BME280;59514;48.810;2.134;2023-04-08T12:47:10;101012.59;;;19.84;37.06
70781;BME280;59514;48.810;2.134;2023-04-08T12:49:35;101010.28;;;19.35;40.94
70781;BME280;59514;48.810;2.134;2023-04-08T12:52:01;101002.78;;;19.77;39.64
70781;BME280;59514;48.810;2.134;2023-04-08T12:54:26;101002.75;;;20.88;41.86
70781;BME280;59514;48.810;2.134;2023-04-08T12:56:52;100998.44;;;20.62;41.07
70781;BME280;59514;48.810;2.134;2023-04-08T12:59:17;100997.88;;;20.75;37.24
70781;BME280;59514;48.810;2.134;2023-04-08T13:01:43;100991.31;;;20.81;40.16
70781;BME280;59514;48.810;2.134;2023-04-08T13:04:08;100995.56;;;21.27;40.69
70781;BME280;59514;48.810;2.134;2023-04-08T13:06:33;100999.03;;;21.38;36.31
70781;BME280;59514;48.810;2.134;2023-04-08T13:08:59;100992.56;;;21.73;38.49
70781;BME280;59514;48.810;2.134;2023-04-08T13:11:24;100991.56;;;21.59;34.17
70781;BME280;59514;48.810;2.134;2023-04-08T13:13:50;100993.88;;;21.80;37.55
70781;BME280;59514;48.810;2.134;2023-04-08T13:16:15;100996.44;;;21.62;36.49